createdAt,value
2022-08-08T00:01:08.023Z,101897.94
2022-08-08T00:04:16.301Z,101900.50
2022-08-08T00:06:55.537Z,101902.47
2022-08-08T00:09:34.096Z,101898.50
2022-08-08T00:12:10.222Z,101893.72
2022-08-08T00:14:59.517Z,101898.25
2022-08-08T00:18:02.117Z,101898.25
2022-08-08T00:20:42.944Z,101904.41
2022-08-08T00:23:16.327Z,101901.88
2022-08-08T00:25:50.856Z,101906.66
2022-08-08T00:28:35.145Z,101895.13
2022-08-08T00:32:28.791Z,101901.59
2022-08-08T00:34:54.286Z,101904.72
2022-08-08T00:37:47.124Z,101910.59
2022-08-08T00:41:11.467Z,101910.59
2022-08-08T00:43:40.022Z,101909.75
2022-08-08T00:46:56.875Z,101910.59
2022-08-08T00:49:38.663Z,101904.41
2022-08-08T00:52:39.238Z,101905.81
2022-08-08T00:55:53.193Z,101906.38
2022-08-08T00:58:54.137Z,101908.31
2022-08-08T01:01:38.146Z,101911.44
2022-08-08T01:04:48.548Z,101904.66
2022-08-08T01:07:55.834Z,101906.94
2022-08-08T01:10:43.089Z,101915.94
2022-08-08T01:13:43.660Z,101911.13
2022-08-08T01:16:32.160Z,101901.81
2022-08-08T01:19:52.121Z,101900.69
2022-08-08T01:22:50.469Z,101904.06
2022-08-08T01:25:55.076Z,101910.78
2022-08-08T01:28:31.048Z,101903.19
2022-08-08T01:31:34.402Z,101909.91
2022-08-08T01:35:02.160Z,101908.50
2022-08-08T01:38:22.540Z,101896.41
2022-08-08T01:41:02.326Z,101896.41
2022-08-08T01:43:40.454Z,101903.19
2022-08-08T01:46:41.970Z,101901.47
2022-08-08T01:49:37.733Z,101896.69
2022-08-08T01:52:57.263Z,101889.34
2022-08-08T01:56:28.560Z,101887.31
2022-08-08T01:59:03.839Z,101887.31
2022-08-08T02:02:03.146Z,101886.22
2022-08-08T02:04:43.276Z,101886.47
2022-08-08T02:07:22.900Z,101887.84
2022-08-08T02:10:29.611Z,101882.19
2022-08-08T02:13:52.889Z,101884.38
2022-08-08T02:16:22.009Z,101879.63
2022-08-08T02:19:57.853Z,101879.34
2022-08-08T02:22:52.525Z,101880.44
2022-08-08T02:25:43.557Z,101881.03
2022-08-08T02:28:34.728Z,101889.13
2022-08-08T02:31:43.886Z,101892.50
2022-08-08T02:35:08.354Z,101884.31
2022-08-08T02:38:25.370Z,101901.72
2022-08-08T02:41:59.570Z,101898.59
2022-08-08T02:44:57.158Z,101901.09
2022-08-08T02:47:52.186Z,101906.13
2022-08-08T02:50:55.823Z,101910.91
2022-08-08T02:53:42.499Z,101911.22
2022-08-08T02:56:40.444Z,101912.28
2022-08-08T03:00:15.878Z,101912.56
2022-08-08T03:05:01.043Z,101910.00
2022-08-08T03:06:40.500Z,101905.19
2022-08-08T03:09:22.665Z,101909.13
2022-08-08T03:12:36.431Z,101902.38
2022-08-08T03:16:00.660Z,101910.84
2022-08-08T03:18:37.088Z,101908.06
2022-08-08T03:21:09.648Z,101914.19
2022-08-08T03:23:39.915Z,101911.63
2022-08-08T03:26:42.362Z,101915.22
2022-08-08T03:29:18.844Z,101902.88
2022-08-08T03:32:08.512Z,101914.91
2022-08-08T03:34:40.329Z,101914.31
2022-08-08T03:38:00.237Z,101908.09
2022-08-08T03:40:03.524Z,101906.31
2022-08-08T03:42:32.400Z,101916.97
2022-08-08T03:45:00.306Z,101910.25
2022-08-08T03:47:45.631Z,101914.22
2022-08-08T03:50:19.693Z,101916.38
2022-08-08T03:52:47.647Z,101922.00
2022-08-08T03:55:20.014Z,101926.19
2022-08-08T03:58:30.075Z,101923.59
2022-08-08T04:01:24.314Z,101934.22
2022-08-08T04:03:59.302Z,101935.59
2022-08-08T04:06:33.658Z,101942.28
2022-08-08T04:09:11.376Z,101945.44
2022-08-08T04:11:48.169Z,101941.44
2022-08-08T04:14:35.841Z,101944.03
2022-08-08T04:17:07.128Z,101944.63
2022-08-08T04:19:49.513Z,101946.03
2022-08-08T04:22:18.485Z,101959.47
2022-08-08T04:24:50.758Z,101953.09
2022-08-08T04:27:42.898Z,101951.16
2022-08-08T04:30:18.329Z,101943.94
2022-08-08T04:32:49.913Z,101951.28
2022-08-08T04:35:20.340Z,101955.22
2022-08-08T04:37:51.097Z,101959.78
2022-08-08T04:40:24.126Z,101954.47
2022-08-08T04:42:56.722Z,101959.81
2022-08-08T04:45:27.571Z,101957.63
2022-08-08T04:48:00.212Z,101962.50
2022-08-08T04:50:37.564Z,101964.78
2022-08-08T04:53:14.167Z,101962.31
2022-08-08T04:55:56.046Z,101966.00
2022-08-08T04:58:25.884Z,101973.00
2022-08-08T05:00:53.161Z,101960.38
2022-08-08T05:04:09.636Z,101968.03
2022-08-08T05:06:13.619Z,101965.34
2022-08-08T05:08:51.588Z,101967.09
2022-08-08T05:11:23.202Z,101971.13
2022-08-08T05:13:58.756Z,101964.69
2022-08-08T05:16:54.431Z,101970.69
2022-08-08T05:20:10.051Z,101966.81
2022-08-08T05:22:07.551Z,101963.19
2022-08-08T05:24:37.456Z,101961.53
2022-08-08T05:27:05.048Z,101967.47
2022-08-08T05:29:36.008Z,101961.31
2022-08-08T05:32:07.681Z,101969.75
2022-08-08T05:34:51.217Z,101971.44
2022-08-08T05:37:39.037Z,101969.13
2022-08-08T05:40:16.756Z,101974.69
2022-08-08T05:42:48.945Z,101976.59
2022-08-08T05:45:25.551Z,101980.19
2022-08-08T05:48:08.330Z,101979.19
2022-08-08T05:50:36.888Z,101973.63
2022-08-08T05:53:54.551Z,101979.03
2022-08-08T05:56:08.280Z,101976.53
2022-08-08T05:58:57.192Z,101974.66
2022-08-08T06:01:57.088Z,101980.13
2022-08-08T06:04:24.813Z,101977.09
2022-08-08T06:07:00.605Z,101983.44
2022-08-08T06:10:00.005Z,101982.91
2022-08-08T06:12:30.237Z,101987.59
2022-08-08T06:15:01.149Z,101982.34
2022-08-08T06:17:51.024Z,101980.88
2022-08-08T06:20:22.936Z,101985.66
2022-08-08T06:22:52.429Z,101987.41
2022-08-08T06:25:33.421Z,101988.16
2022-08-08T06:28:29.693Z,101984.53
2022-08-08T06:31:03.531Z,101993.97
2022-08-08T06:34:25.875Z,101995.88
2022-08-08T06:36:53.097Z,101990.25
2022-08-08T06:39:24.980Z,101996.91
2022-08-08T06:42:04.239Z,101996.41
2022-08-08T06:44:42.678Z,101993.09
2022-08-08T06:47:10.569Z,101992.69
2022-08-08T06:49:55.702Z,101990.06
2022-08-08T06:52:23.834Z,101995.16
2022-08-08T06:54:55.362Z,102002.19
2022-08-08T06:57:24.968Z,101995.16
2022-08-08T07:00:10.384Z,101997.34
2022-08-08T07:02:45.986Z,101992.66
2022-08-08T07:05:20.070Z,101995.13
2022-08-08T07:08:23.432Z,101993.41
2022-08-08T07:10:55.863Z,102001.19
2022-08-08T07:13:25.494Z,101999.81
2022-08-08T07:16:05.048Z,101997.88
2022-08-08T07:19:10.874Z,102005.28
2022-08-08T07:22:00.466Z,102006.31
2022-08-08T07:24:37.462Z,102005.34
2022-08-08T07:27:11.411Z,102011.38
2022-08-08T07:30:02.378Z,102005.66
2022-08-08T07:32:34.527Z,102004.56
2022-08-08T07:35:06.122Z,102011.31
2022-08-08T07:37:55.710Z,102008.97
2022-08-08T07:40:33.934Z,102008.19
2022-08-08T07:43:09.090Z,102015.63
2022-08-08T07:46:04.859Z,102011.22
2022-08-08T07:48:29.676Z,102012.44
2022-08-08T07:51:00.790Z,102020.97
2022-08-08T07:54:02.400Z,102018.22
2022-08-08T07:56:37.010Z,102011.88
2022-08-08T07:59:14.250Z,102019.59
2022-08-08T08:02:34.718Z,102016.81
2022-08-08T08:04:46.718Z,102027.16
2022-08-08T08:07:17.161Z,102029.28
2022-08-08T08:09:44.392Z,102019.22
2022-08-08T08:12:31.563Z,102018.69
2022-08-08T08:15:05.361Z,102021.63
2022-08-08T08:17:48.204Z,102017.47
2022-08-08T08:20:17.575Z,102021.41
2022-08-08T08:22:44.066Z,102019.09
2022-08-08T08:25:16.940Z,102020.72
2022-08-08T08:27:46.825Z,102019.50
2022-08-08T08:30:14.798Z,102021.88
2022-08-08T08:32:51.042Z,102020.81
2022-08-08T08:35:18.212Z,102023.47
2022-08-08T08:38:14.464Z,102035.44
2022-08-08T08:40:35.581Z,102020.00
2022-08-08T08:43:03.972Z,102023.38
2022-08-08T08:45:31.602Z,102025.34
2022-08-08T08:48:01.769Z,102026.78
2022-08-08T08:50:35.312Z,102024.19
2022-08-08T08:53:55.572Z,102025.34
2022-08-08T08:56:06.934Z,102018.13
2022-08-08T08:58:46.730Z,102021.84
2022-08-08T09:01:23.700Z,102025.69
2022-08-08T09:03:55.334Z,102027.34
2022-08-08T09:06:34.272Z,102014.94
2022-08-08T09:09:26.649Z,102026.75
2022-08-08T09:12:07.486Z,102014.69
2022-08-08T09:14:35.332Z,102020.69
2022-08-08T09:17:09.695Z,102021.88
2022-08-08T09:22:01.479Z,102018.00
2022-08-08T09:22:27.948Z,102013.53
2022-08-08T09:24:58.561Z,102015.38
2022-08-08T09:27:56.812Z,102011.81
2022-08-08T09:30:17.583Z,102016.25
2022-08-08T09:33:12.790Z,102014.19
2022-08-08T09:35:39.392Z,102009.06
2022-08-08T09:38:24.486Z,102009.81
2022-08-08T09:41:01.975Z,102004.22
2022-08-08T09:44:04.242Z,102001.44
2022-08-08T09:46:25.851Z,102006.47
2022-08-08T09:48:57.853Z,102005.22
2022-08-08T09:52:07.053Z,102002.34
2022-08-08T09:54:42.380Z,101998.56
2022-08-08T09:57:17.008Z,102003.41
2022-08-08T10:00:01.973Z,101995.41
2022-08-08T10:02:44.812Z,102000.81
2022-08-08T10:05:26.067Z,101996.63
2022-08-08T10:08:00.543Z,102002.38
2022-08-08T10:10:41.642Z,102001.28
2022-08-08T10:13:35.462Z,101994.75
2022-08-08T10:16:03.781Z,101998.50
2022-08-08T10:18:32.889Z,101985.09
2022-08-08T10:21:23.227Z,101995.31
2022-08-08T10:23:58.586Z,101986.88
2022-08-08T10:26:52.395Z,101989.75
2022-08-08T10:29:23.313Z,101991.41
2022-08-08T10:32:16.453Z,101989.56
2022-08-08T10:34:58.602Z,101982.41
2022-08-08T10:37:35.409Z,101982.16
2022-08-08T10:40:16.833Z,101981.59
2022-08-08T10:42:45.418Z,101982.78
2022-08-08T10:45:12.344Z,101985.81
2022-08-08T10:47:48.521Z,101981.47
2022-08-08T10:50:23.598Z,101984.00
2022-08-08T10:52:50.655Z,101983.72
2022-08-08T10:55:39.792Z,101975.63
2022-08-08T10:58:08.992Z,101975.28
2022-08-08T11:00:53.167Z,101975.66
2022-08-08T11:04:00.583Z,101977.97
2022-08-08T11:06:35.604Z,101968.31
2022-08-08T11:09:19.235Z,101964.75
2022-08-08T11:12:05.506Z,101968.75
2022-08-08T11:14:34.704Z,101976.13
2022-08-08T11:17:02.717Z,101972.78
2022-08-08T11:19:33.529Z,101972.69
2022-08-08T11:22:01.324Z,101972.69
2022-08-08T11:24:34.202Z,101970.84
2022-08-08T11:27:10.369Z,101975.66
2022-08-08T11:29:58.428Z,101978.16
2022-08-08T11:32:38.652Z,101974.56
2022-08-08T11:35:27.315Z,101967.31
2022-08-08T11:38:39.189Z,101965.47
2022-08-08T11:40:52.400Z,101967.53
2022-08-08T11:43:21.695Z,101966.75
2022-08-08T11:46:14.417Z,101966.72
2022-08-08T11:48:39.233Z,101966.81
2022-08-08T11:51:34.931Z,101965.13
2022-08-08T11:53:59.268Z,101967.31
2022-08-08T11:56:33.196Z,101961.56
2022-08-08T11:59:09.617Z,101967.44
2022-08-08T12:01:37.083Z,101962.50
2022-08-08T12:04:05.687Z,101958.16
2022-08-08T12:06:33.292Z,101954.47
2022-08-08T12:09:08.262Z,101959.03
2022-08-08T12:11:52.928Z,101948.66
2022-08-08T12:14:29.208Z,101952.88
2022-08-08T12:16:57.106Z,101952.72
2022-08-08T12:19:38.009Z,101945.38
2022-08-08T12:22:13.926Z,101948.59
2022-08-08T12:24:53.948Z,101939.47
2022-08-08T12:27:26.947Z,101930.97
2022-08-08T12:30:02.409Z,101941.72
2022-08-08T12:32:41.465Z,101938.38
2022-08-08T12:35:23.106Z,101933.81
2022-08-08T12:38:05.859Z,101943.91
2022-08-08T12:40:54.221Z,101939.25
2022-08-08T12:43:43.569Z,101936.91
2022-08-08T12:46:25.086Z,101930.56
2022-08-08T12:49:22.266Z,101931.00
2022-08-08T12:51:59.281Z,101927.00
2022-08-08T12:54:38.334Z,101936.44
2022-08-08T12:57:26.033Z,101923.84
2022-08-08T13:00:03.370Z,101930.50
2022-08-08T13:02:42.171Z,101923.72
2022-08-08T13:05:26.583Z,101931.19
2022-08-08T13:08:18.358Z,101918.78
2022-08-08T13:10:56.312Z,101925.81
2022-08-08T13:13:37.278Z,101917.72
2022-08-08T13:16:21.291Z,101921.44
2022-08-08T13:18:58.190Z,101912.91
2022-08-08T13:21:48.770Z,101918.81
2022-08-08T13:24:18.774Z,101920.25
2022-08-08T13:27:03.406Z,101915.44
2022-08-08T13:29:37.874Z,101917.91
2022-08-08T13:32:10.945Z,101918.78
2022-08-08T13:34:40.171Z,101920.31
2022-08-08T13:37:11.047Z,101920.50
2022-08-08T13:39:56.374Z,101921.16
2022-08-08T13:42:25.157Z,101915.13
2022-08-08T13:44:55.690Z,101918.88
2022-08-08T13:47:23.016Z,101920.03
2022-08-08T13:50:35.640Z,101920.09
2022-08-08T13:52:51.332Z,101919.22
2022-08-08T13:55:29.303Z,101918.13
2022-08-08T13:58:07.963Z,101909.41
2022-08-08T14:00:45.100Z,101915.34
2022-08-08T14:03:52.486Z,101916.38
2022-08-08T14:06:32.394Z,101922.53
2022-08-08T14:08:58.060Z,101915.97
2022-08-08T14:11:29.496Z,101912.28
2022-08-08T14:13:59.689Z,101912.22
2022-08-08T14:16:27.875Z,101910.09
2022-08-08T14:19:00.859Z,101907.78
2022-08-08T14:21:59.237Z,101912.53
2022-08-08T14:24:32.643Z,101905.09
2022-08-08T14:26:59.110Z,101903.25
2022-08-08T14:29:30.822Z,101908.53
2022-08-08T14:32:09.187Z,101904.19
2022-08-08T14:34:37.532Z,101907.31
2022-08-08T14:37:08.538Z,101909.22
2022-08-08T14:40:05.814Z,101911.41
2022-08-08T14:42:35.736Z,101904.78
2022-08-08T14:45:09.971Z,101904.63
2022-08-08T14:47:57.354Z,101905.69
2022-08-08T14:50:38.890Z,101912.03
2022-08-08T14:53:14.239Z,101905.34
2022-08-08T14:55:43.106Z,101907.69
2022-08-08T14:58:11.763Z,101908.22
2022-08-08T15:00:43.328Z,101905.13
2022-08-08T15:03:15.861Z,101914.22
2022-08-08T15:05:54.775Z,101911.06
2022-08-08T15:08:34.828Z,101912.41
2022-08-08T15:11:11.127Z,101914.84
2022-08-08T15:14:02.052Z,101918.13
2022-08-08T15:16:29.815Z,101911.25
2022-08-08T15:19:01.344Z,101909.72
2022-08-08T15:21:30.305Z,101902.13
2022-08-08T15:23:57.005Z,101904.63
2022-08-08T15:26:25.848Z,101899.25
2022-08-08T15:28:55.356Z,101901.84
2022-08-08T15:31:55.815Z,101905.16
2022-08-08T15:34:29.034Z,101900.97
2022-08-08T15:36:56.570Z,101902.25
2022-08-08T15:39:23.063Z,101891.25
2022-08-08T15:41:49.626Z,101892.19
2022-08-08T15:44:18.049Z,101893.16
2022-08-08T15:46:45.278Z,101890.66
2022-08-08T15:49:17.476Z,101895.59
2022-08-08T15:51:48.172Z,101888.91
2022-08-08T15:54:18.750Z,101892.44
2022-08-08T15:57:02.884Z,101890.31
2022-08-08T16:00:06.113Z,101890.38
2022-08-08T16:02:16.217Z,101897.41
2022-08-08T16:04:44.175Z,101899.81
2022-08-08T16:07:16.767Z,101898.06
2022-08-08T16:13:09.455Z,101898.25
2022-08-08T16:13:14.780Z,101894.97
2022-08-08T16:15:16.324Z,101900.34
2022-08-08T16:18:06.443Z,101901.09
2022-08-08T16:24:07.111Z,101901.22
2022-08-08T16:26:39.393Z,101898.25
2022-08-08T16:29:16.219Z,101893.84
2022-08-08T16:31:49.149Z,101898.47
2022-08-08T16:34:19.235Z,101898.78
2022-08-08T16:36:45.761Z,101890.53
2022-08-08T16:39:59.615Z,101895.16
2022-08-08T16:42:05.867Z,101901.66
2022-08-08T16:44:33.830Z,101895.31
2022-08-08T16:47:21.897Z,101891.16
2022-08-08T16:49:59.645Z,101900.97
2022-08-08T16:55:01.173Z,101898.56
2022-08-08T16:55:42.391Z,101890.81
2022-08-08T16:58:14.355Z,101896.91
2022-08-08T17:00:48.874Z,101901.03
2022-08-08T17:03:24.447Z,101900.31
2022-08-08T17:05:53.505Z,101902.16
2022-08-08T17:08:20.612Z,101899.97
2022-08-08T17:10:57.580Z,101903.00
2022-08-08T17:13:27.439Z,101909.03
2022-08-08T17:16:07.286Z,101913.59
2022-08-08T17:18:41.970Z,101909.50
2022-08-08T17:21:09.788Z,101903.13
2022-08-08T17:24:00.556Z,101904.69
2022-08-08T17:26:28.940Z,101901.94
2022-08-08T17:28:56.446Z,101907.69
2022-08-08T17:31:45.417Z,101910.72
2022-08-08T17:34:36.728Z,101911.75
2022-08-08T17:37:03.330Z,101909.63
2022-08-08T17:40:03.092Z,101916.47
2022-08-08T17:42:19.227Z,101921.38
2022-08-08T17:44:49.128Z,101925.53
2022-08-08T17:47:24.128Z,101918.84
2022-08-08T17:50:06.893Z,101919.41
2022-08-08T17:52:35.245Z,101929.56
2022-08-08T17:56:04.025Z,101929.31
2022-08-08T17:57:52.412Z,101930.84
2022-08-08T18:00:19.746Z,101927.88
2022-08-08T18:03:07.521Z,101938.97
2022-08-08T18:05:49.547Z,101942.63
2022-08-08T18:08:24.783Z,101942.38
2022-08-08T18:11:11.936Z,101947.19
2022-08-08T18:13:42.788Z,101940.88
2022-08-08T18:16:09.796Z,101947.19
2022-08-08T18:18:42.379Z,101947.69
2022-08-08T18:21:35.466Z,101952.84
2022-08-08T18:23:58.844Z,101952.28
2022-08-08T18:26:25.862Z,101961.13
2022-08-08T18:28:55.567Z,101956.56
2022-08-08T18:31:22.445Z,101960.75
2022-08-08T18:34:11.484Z,101967.69
2022-08-08T18:36:36.562Z,101978.53
2022-08-08T18:39:03.758Z,101972.44
2022-08-08T18:41:51.140Z,101986.03
2022-08-08T18:44:17.312Z,101980.81
2022-08-08T18:46:55.066Z,101990.56
2022-08-08T18:49:24.314Z,101989.97
2022-08-08T18:51:54.494Z,101994.97
2022-08-08T18:54:27.348Z,101999.59
2022-08-08T18:56:57.103Z,101996.09
2022-08-08T18:59:23.549Z,101998.34
2022-08-08T19:02:26.166Z,102005.97
2022-08-08T19:04:36.887Z,102008.91
2022-08-08T19:07:03.841Z,102018.66
2022-08-08T19:09:48.481Z,102018.03
2022-08-08T19:12:17.945Z,102022.25
2022-08-08T19:14:46.546Z,102023.31
2022-08-08T19:17:13.315Z,102019.69
2022-08-08T19:20:02.314Z,102031.53
2022-08-08T19:22:29.659Z,102030.91
2022-08-08T19:26:02.295Z,102032.69
2022-08-08T19:27:55.909Z,102028.38
2022-08-08T19:30:26.447Z,102040.88
2022-08-08T19:32:53.932Z,102035.22
2022-08-08T19:35:25.646Z,102039.97
2022-08-08T19:38:12.853Z,102043.00
2022-08-08T19:40:44.018Z,102038.63
2022-08-08T19:43:11.936Z,102042.22
2022-08-08T19:45:59.990Z,102047.78
2022-08-08T19:48:28.111Z,102050.50
2022-08-08T19:50:55.919Z,102048.81
2022-08-08T19:53:51.864Z,102047.34
2022-08-08T19:56:12.216Z,102051.38
2022-08-08T19:58:39.501Z,102053.25
2022-08-08T20:01:17.112Z,102056.41
2022-08-08T20:04:02.600Z,102054.59
2022-08-08T20:06:29.976Z,102059.94
2022-08-08T20:08:56.908Z,102060.09
2022-08-08T20:11:23.752Z,102063.97
2022-08-08T20:14:12.045Z,102075.50
2022-08-08T20:16:40.937Z,102069.44
2022-08-08T20:19:10.541Z,102071.97
2022-08-08T20:21:38.325Z,102077.69
2022-08-08T20:24:06.269Z,102080.66
2022-08-08T20:26:38.171Z,102085.97
2022-08-08T20:29:06.506Z,102083.44
2022-08-08T20:32:06.985Z,102083.06
2022-08-08T20:34:30.342Z,102084.78
2022-08-08T20:36:58.683Z,102087.16
2022-08-08T20:39:25.354Z,102084.44
2022-08-08T20:42:00.408Z,102086.91
2022-08-08T20:44:26.831Z,102084.53
2022-08-08T20:46:53.256Z,102092.38
2022-08-08T20:49:20.374Z,102089.78
2022-08-08T20:51:48.386Z,102093.56
2022-08-08T20:54:26.001Z,102090.84
2022-08-08T20:57:16.724Z,102096.13
2022-08-08T20:59:41.764Z,102089.63
2022-08-08T21:02:09.072Z,102094.81
2022-08-08T21:04:40.470Z,102098.38
2022-08-08T21:07:16.208Z,102094.19
2022-08-08T21:09:48.542Z,102094.25
2022-08-08T21:12:33.058Z,102101.94
2022-08-08T21:15:07.001Z,102102.91
2022-08-08T21:17:34.965Z,102100.88
2022-08-08T21:20:03.762Z,102102.06
2022-08-08T21:22:30.477Z,102109.63
2022-08-08T21:24:56.932Z,102098.16
2022-08-08T21:28:05.913Z,102102.91
2022-08-08T21:30:19.411Z,102108.59
2022-08-08T21:32:51.578Z,102108.69
2022-08-08T21:36:14.299Z,102110.59
2022-08-08T21:38:08.567Z,102105.31
2022-08-08T21:40:54.982Z,102118.41
2022-08-08T21:43:23.217Z,102111.00
2022-08-08T21:48:01.407Z,102119.66
2022-08-08T21:48:41.682Z,102115.66
2022-08-08T21:51:11.324Z,102110.38
2022-08-08T21:54:31.087Z,102109.41
2022-08-08T21:56:33.886Z,102115.34
2022-08-08T21:59:05.619Z,102116.69
2022-08-08T22:01:40.630Z,102119.03
2022-08-08T22:06:39.710Z,102117.34
2022-08-08T22:09:09.033Z,102110.59
2022-08-08T22:12:02.315Z,102113.44
2022-08-08T22:14:23.914Z,102106.19
2022-08-08T22:16:53.868Z,102112.19
2022-08-08T22:19:23.763Z,102116.59
2022-08-08T22:21:51.856Z,102119.56
2022-08-08T22:24:23.951Z,102119.25
2022-08-08T22:27:02.406Z,102118.81
2022-08-08T22:30:01.671Z,102114.19
2022-08-08T22:32:19.082Z,102120.53
2022-08-08T22:34:50.436Z,102121.47
2022-08-08T22:37:49.455Z,102130.28
2022-08-08T22:40:07.557Z,102125.34
2022-08-08T22:42:43.157Z,102127.75
2022-08-08T22:45:13.713Z,102134.56
2022-08-08T22:47:46.735Z,102133.25
2022-08-08T22:50:26.928Z,102134.56
2022-08-08T22:54:30.439Z,102132.16
2022-08-08T22:55:57.855Z,102134.47
2022-08-08T22:58:33.106Z,102131.41
2022-08-08T23:01:26.585Z,102130.88
2022-08-08T23:03:53.181Z,102130.47
2022-08-08T23:06:21.330Z,102132.78
2022-08-08T23:08:55.427Z,102125.22
2022-08-08T23:11:58.194Z,102121.88
2022-08-08T23:14:14.427Z,102120.41
2022-08-08T23:16:44.182Z,102130.69
2022-08-08T23:19:15.274Z,102134.63
2022-08-08T23:21:42.163Z,102127.22
2022-08-08T23:24:09.008Z,102131.97
2022-08-08T23:26:35.706Z,102130.81
2022-08-08T23:29:04.235Z,102126.53
2022-08-08T23:31:38.616Z,102128.81
2022-08-08T23:34:17.660Z,102129.03
2022-08-08T23:36:46.148Z,102137.22
2022-08-08T23:39:12.961Z,102135.63
2022-08-08T23:41:45.506Z,102135.31
2022-08-08T23:44:13.965Z,102139.00
2022-08-08T23:49:02.105Z,102135.94
2022-08-08T23:49:27.208Z,102129.19
2022-08-08T23:52:04.996Z,102135.94
2022-08-08T23:54:42.833Z,102126.97
2022-08-08T23:57:27.477Z,102136.97
